Brightwood, Oregon
Current Conditions -  °F | °C
As of 10:53 PM on Thursday 27 Nov 2014 (Local Time) from KTTD Reporting Station
Overcast Overcast  
Wind Chill: 57°   Ceiling: 2500
Heat Index: 57°   Visibility: 10mi
Dew Point: 48°   Wind: 7mph
Humidity: 72%   Direction: 220°SW
Pressure: 29.83"   Gusts: NA
Location:  45.38°N, 122.02°W
Report Text: KTTD 280653Z AUTO 22006KT 10SM BKN025 OVC031 14/09 A2983 RMK AO2 SLP102 T01390089
Loading
Personal Weather Stations






























Interactive Weather Map New forecast layout! Learn more

10-Day Weather Forecast

Advertisements
Track Severe Weather on mobile